Time;durP1;ratioP1;P1;durP2;ratioP2;P2;SDS_P1;SDS_P2;PMS_P1;PMS_P2;Temp;Humidity;BMP_temperature;BMP_pressure;BME280_temperature;BME280_humidity;BME280_pressure;Samples;Min_cycle;Max_cycle;Signal;HPM_P1;HPM_P2
2021/10/04 00:01:16;;;;;;;25.70;21.95;;;;;;;8.55;62.24;101649.39;1701257;83;21049;-69
2021/10/04 00:03:42;;;;;;;27.70;22.80;;;;;;;8.48;62.28;101641.17;1695796;83;21102;-66
2021/10/04 00:06:09;;;;;;;;;;;;;;;8.44;62.46;101638.45;1661371;85;21655;-67
2021/10/04 00:08:36;;;;;;;26.90;20.23;;;;;;;8.31;62.81;101624.60;1659819;85;20171;-65
2021/10/04 00:11:03;;;;;;;27.55;23.60;;;;;;;8.23;63.06;101629.77;1659712;85;21015;-65
2021/10/04 00:13:31;;;;;;;26.03;19.23;;;;;;;8.17;63.27;101626.71;1657559;85;21031;-65
2021/10/04 00:15:58;;;;;;;;;;;;;;;8.11;63.19;101620.61;1693572;83;21082;-66
2021/10/04 00:18:26;;;;;;;29.57;21.10;;;;;;;8.11;63.18;101627.75;1694503;83;20141;-71
2021/10/04 00:20:52;;;;;;;24.77;21.10;;;;;;;8.03;63.39;101627.13;1696284;83;21845;-70
2021/10/04 00:23:18;;;;;;;24.60;20.75;;;;;;;7.99;63.43;101609.80;1706518;83;21029;-66
2021/10/04 00:25:45;;;;;;;21.65;18.90;;;;;;;8.01;63.35;101613.66;1691698;83;21165;-66
2021/10/04 00:28:11;;;;;;;24.47;20.57;;;;;;;8.10;63.19;101607.47;1692263;84;21022;-66
2021/10/04 00:30:37;;;;;;;22.98;20.15;;;;;;;8.13;63.12;101610.69;1691231;83;21042;-67
2021/10/04 00:33:04;;;;;;;26.37;20.67;;;;;;;8.12;63.18;101604.21;1689214;82;21018;-66
2021/10/04 00:35:31;;;;;;;28.07;22.58;;;;;;;8.10;63.19;101599.50;1700245;83;21587;-66
2021/10/04 00:37:58;;;;;;;29.00;20.83;;;;;;;8.07;63.24;101599.30;1690315;83;21009;-65
2021/10/04 00:40:29;;;;;;;25.75;21.20;;;;;;;8.06;63.27;101602.09;1677163;84;21042;-68
2021/10/04 00:42:56;;;;;;;24.93;19.77;;;;;;;8.04;63.33;101599.58;1693802;83;21067;-66
2021/10/04 00:45:23;;;;;;;25.53;19.17;;;;;;;7.97;63.38;101599.31;1703954;81;21017;-65
2021/10/04 00:47:49;;;;;;;26.27;18.30;;;;;;;7.93;63.39;101607.69;1696500;83;21016;-65
2021/10/04 00:50:18;;;;;;;26.77;19.07;;;;;;;7.89;63.37;101608.48;1693387;83;21756;-70
2021/10/04 00:52:45;;;;;;;26.40;17.77;;;;;;;7.94;63.32;101616.02;1681166;83;21020;-68
2021/10/04 00:55:13;;;;;;;19.87;16.93;;;;;;;8.04;63.05;101614.68;1692694;83;22169;-65
2021/10/04 00:57:41;;;;;;;23.13;18.53;;;;;;;8.07;62.93;101614.41;1687608;83;21495;-65
2021/10/04 01:00:11;;;;;;;22.57;19.10;;;;;;;8.04;63.00;101612.03;1693705;83;21530;-67
2021/10/04 01:02:38;;;;;;;24.97;20.03;;;;;;;8.03;63.00;101624.97;1694502;83;21001;-66
2021/10/04 01:05:09;;;;;;;27.60;19.77;;;;;;;8.03;62.97;101624.97;1694027;83;21059;-65
2021/10/04 01:07:36;;;;;;;30.40;21.93;;;;;;;8.01;62.99;101625.11;1693607;83;22071;-67
2021/10/04 01:10:04;;;;;;;25.12;21.68;;;;;;;7.99;63.03;101625.23;1692825;83;21135;-67
2021/10/04 01:12:30;;;;;;;26.20;21.87;;;;;;;7.94;63.29;101625.30;1696003;82;21099;-67
2021/10/04 01:14:56;;;;;;;29.37;22.58;;;;;;;7.85;63.60;101615.02;1685316;83;21125;-68
2021/10/04 01:17:23;;;;;;;29.50;21.33;;;;;;;7.78;63.81;101615.25;1693039;83;21100;-65
2021/10/04 01:19:49;;;;;;;26.73;21.02;;;;;;;7.70;63.98;101611.94;1693062;83;21088;-66
2021/10/04 01:22:16;;;;;;;23.77;18.10;;;;;;;7.70;63.99;101613.76;1692714;82;21063;-68
2021/10/04 01:24:42;;;;;;;21.70;19.40;;;;;;;7.77;63.89;101610.91;1695862;83;21087;-65
2021/10/04 01:27:09;;;;;;;27.85;19.75;;;;;;;7.80;63.84;101618.61;1689839;83;21081;-66
2021/10/04 01:29:35;;;;;;;26.25;20.20;;;;;;;7.74;63.88;101614.69;1689659;83;21080;-65
2021/10/04 01:32:01;;;;;;;27.48;20.23;;;;;;;7.69;63.79;101618.73;1679555;83;21055;-68
2021/10/04 01:34:27;;;;;;;24.30;19.92;;;;;;;7.66;63.76;101626.96;1692842;83;21511;-65
2021/10/04 01:36:53;;;;;;;28.83;22.02;;;;;;;7.60;63.71;101623.87;1692641;83;21111;-68
2021/10/04 01:39:19;;;;;;;32.20;21.95;;;;;;;7.56;63.76;101623.80;1692964;83;21690;-64
2021/10/04 01:41:45;;;;;;;24.32;20.55;;;;;;;7.52;63.85;101625.05;1693422;83;21008;-66
2021/10/04 01:44:11;;;;;;;35.28;23.98;;;;;;;7.48;63.87;101622.80;1690606;83;21536;-65
2021/10/04 01:46:37;;;;;;;30.45;21.12;;;;;;;7.43;64.03;101627.69;1700804;83;21066;-68
2021/10/04 01:49:04;;;;;;;30.70;21.93;;;;;;;7.41;64.08;101637.94;1691237;83;21101;-69
2021/10/04 01:51:30;;;;;;;31.17;21.80;;;;;;;7.48;64.02;101638.72;1689296;83;20990;-66
2021/10/04 01:53:56;;;;;;;29.48;23.02;;;;;;;7.47;64.10;101635.23;1698817;83;21011;-68
2021/10/04 01:56:22;;;;;;;33.10;23.00;;;;;;;7.43;64.35;101627.69;1696716;84;21005;-68
2021/10/04 01:58:48;;;;;;;30.02;23.45;;;;;;;7.35;64.56;101624.39;1689836;83;21142;-65
2021/10/04 02:01:14;;;;;;;31.70;23.57;;;;;;;7.25;65.02;101620.86;1679173;84;21135;-65
2021/10/04 02:03:40;;;;;;;28.80;22.45;;;;;;;7.16;65.21;101629.16;1671938;85;21125;-66
2021/10/04 02:06:07;;;;;;;30.80;23.07;;;;;;;7.10;65.33;101637.63;1671825;85;21309;-65
2021/10/04 02:08:34;;;;;;;28.23;21.13;;;;;;;7.04;65.44;101640.33;1670254;85;21606;-67
2021/10/04 02:11:00;;;;;;;26.55;21.37;;;;;;;7.04;65.33;101649.59;1670312;84;21136;-69
2021/10/04 02:13:26;;;;;;;28.40;21.02;;;;;;;7.11;65.14;101648.59;1678409;85;21073;-65
2021/10/04 02:15:52;;;;;;;29.25;20.95;;;;;;;7.12;65.03;101645.81;1675545;85;21562;-65
2021/10/04 02:18:18;;;;;;;33.38;20.65;;;;;;;7.09;65.12;101647.89;1672300;85;21129;-67
2021/10/04 02:20:47;;;;;;;25.08;20.27;;;;;;;7.04;65.21;101648.77;1673374;85;21037;-70
2021/10/04 02:23:15;;;;;;;27.47;21.53;;;;;;;6.97;65.46;101653.78;1673510;84;21025;-66
2021/10/04 02:25:46;;;;;;;27.20;20.27;;;;;;;6.88;65.59;101650.59;1657503;85;21182;-64
2021/10/04 02:28:15;;;;;;;26.17;20.57;;;;;;;6.79;65.63;101652.21;1671051;85;21133;-66
2021/10/04 02:30:41;;;;;;;23.50;19.37;;;;;;;6.75;65.76;101645.01;1667724;84;21024;-66
2021/10/04 02:33:09;;;;;;;26.02;19.55;;;;;;;6.77;65.65;101645.71;1665517;84;21120;-64
2021/10/04 02:35:37;;;;;;;26.57;17.83;;;;;;;6.84;65.51;101646.04;1665374;85;21017;-66
2021/10/04 02:38:04;;;;;;;26.37;19.23;;;;;;;6.86;65.44;101648.56;1639332;85;21002;-67
2021/10/04 02:40:31;;;;;;;24.37;20.53;;;;;;;6.83;65.50;101655.78;1648704;85;21061;-69
2021/10/04 02:42:58;;;;;;;25.33;20.07;;;;;;;6.80;65.50;101655.23;1676927;85;21601;-66
2021/10/04 02:45:25;;;;;;;26.60;21.40;;;;;;;6.77;65.59;101654.98;1681144;83;20989;-72
2021/10/04 02:51:00;;;;;;;30.30;21.85;;;;;;;6.73;65.79;101658.88;1796563;78;22779;-69
2021/10/04 02:53:26;;;;;;;25.75;20.57;;;;;;;6.70;65.71;101660.45;1786683;80;21373;-66
2021/10/04 02:55:53;;;;;;;26.27;19.62;;;;;;;6.76;65.59;101654.66;1758879;80;21028;-66
2021/10/04 02:58:20;;;;;;;25.27;19.65;;;;;;;6.76;65.57;101646.70;1749872;80;21104;-67
2021/10/04 03:00:47;;;;;;;22.80;19.47;;;;;;;6.70;65.70;101652.50;1747372;80;21056;-68
2021/10/04 03:03:13;;;;;;;22.82;19.32;;;;;;;6.64;65.83;101653.03;1743694;80;21559;-66
2021/10/04 03:05:39;;;;;;;28.10;20.75;;;;;;;6.61;65.86;101657.25;1756415;80;21018;-65
2021/10/04 03:08:06;;;;;;;31.68;20.90;;;;;;;6.60;65.87;101659.56;1756601;80;21073;-67
2021/10/04 03:10:36;;;;;;;27.57;20.37;;;;;;;6.57;65.90;101659.35;1752307;80;21033;-67
2021/10/04 03:13:04;;;;;;;27.60;18.43;;;;;;;6.53;66.20;101658.40;1731759;78;21113;-67
2021/10/04 03:15:30;;;;;;;23.33;18.23;;;;;;;6.52;66.19;101662.86;1727793;81;21045;-66
2021/10/04 03:17:57;;;;;;;22.30;18.42;;;;;;;6.59;66.02;101664.50;1726393;81;21057;-65
2021/10/04 03:20:23;;;;;;;;;;;;;;;6.62;65.93;101663.75;1715499;81;21025;-66
2021/10/04 03:22:50;;;;;;;27.43;20.73;;;;;;;6.56;66.13;101662.12;1718016;81;20471;-67
2021/10/04 03:25:16;;;;;;;26.17;20.20;;;;;;;6.44;66.38;101661.33;1715044;83;21133;-65
2021/10/04 03:27:43;;;;;;;27.87;22.00;;;;;;;6.37;66.72;101657.05;1710896;82;21081;-64
2021/10/04 03:30:10;;;;;;;28.90;21.10;;;;;;;6.32;66.95;101657.91;1732115;83;21556;-67
2021/10/04 03:32:38;;;;;;;30.97;19.73;;;;;;;6.27;67.18;101659.25;1705012;83;21006;-67
2021/10/04 03:35:05;;;;;;;;;;;;;;;6.31;67.11;101656.24;1734395;82;21068;-73
2021/10/04 03:37:31;;;;;;;23.40;17.75;;;;;;;6.38;66.87;101658.70;1724982;83;20208;-71
2021/10/04 03:39:58;;;;;;;26.35;18.62;;;;;;;6.41;66.83;101661.11;1726875;82;21486;-66
2021/10/04 03:42:24;;;;;;;21.27;17.80;;;;;;;6.49;66.65;101671.55;1716962;83;21036;-64
2021/10/04 03:44:50;;;;;;;26.52;19.25;;;;;;;6.49;66.65;101671.55;1723137;80;21036;-68
2021/10/04 03:47:16;;;;;;;29.55;19.35;;;;;;;6.47;66.56;101672.17;1759850;80;21434;-64
2021/10/04 03:49:42;;;;;;;25.80;19.15;;;;;;;6.47;66.51;101677.47;1760532;80;21204;-69
2021/10/04 03:52:08;;;;;;;24.75;19.90;;;;;;;6.49;66.40;101680.83;1761973;80;21028;-67
2021/10/04 03:54:35;;;;;;;24.95;19.52;;;;;;;6.49;66.30;101678.17;1763539;80;21071;-66
2021/10/04 03:57:01;;;;;;;24.12;19.20;;;;;;;6.49;66.36;101684.80;1755994;80;21515;-64
2021/10/04 03:59:27;;;;;;;26.15;19.42;;;;;;;6.47;66.38;101686.73;1750872;80;21064;-64
2021/10/04 04:01:53;;;;;;;24.98;19.25;;;;;;;6.45;66.41;101679.41;1730460;80;21535;-66
2021/10/04 04:04:20;;;;;;;24.40;18.17;;;;;;;6.49;66.25;101684.80;1732594;82;21608;-71
2021/10/04 04:06:46;;;;;;;24.27;18.15;;;;;;;6.58;66.03;101687.51;1728631;82;21084;-68
2021/10/04 04:09:12;;;;;;;23.83;18.35;;;;;;;6.58;66.00;101681.37;1729892;81;21104;-65
2021/10/04 04:11:38;;;;;;;;;;;;;;;6.53;66.14;101684.39;1739487;81;21069;-66
2021/10/04 04:14:04;;;;;;;32.50;20.70;;;;;;;6.49;66.29;101694.06;1738213;81;20165;-71
2021/10/04 04:16:31;;;;;;;23.85;17.82;;;;;;;6.40;66.50;101695.20;1749760;81;21013;-65
2021/10/04 04:18:58;;;;;;;26.20;19.27;;;;;;;6.40;66.50;101698.31;1741060;81;21018;-74
2021/10/04 04:21:24;;;;;;;26.65;19.77;;;;;;;6.38;66.58;101702.41;1745865;81;21114;-71
2021/10/04 04:23:50;;;;;;;22.77;19.20;;;;;;;6.43;66.64;101696.74;1739911;81;20982;-69
2021/10/04 04:26:16;;;;;;;30.32;18.07;;;;;;;6.60;66.72;101703.28;1729216;81;21026;-67
2021/10/04 04:28:42;;;;;;;21.65;16.35;;;;;;;6.94;66.37;101704.40;1741408;81;21085;-69
2021/10/04 04:31:09;;;;;;;24.43;17.10;;;;;;;7.47;64.81;101700.23;1732804;81;21080;-70
2021/10/04 04:33:35;;;;;;;25.72;18.15;;;;;;;7.94;63.08;101704.95;1735581;80;21281;-69
2021/10/04 04:36:01;;;;;;;26.17;18.12;;;;;;;8.32;62.09;101703.30;1743222;81;21011;-68
2021/10/04 04:38:27;;;;;;;21.42;16.45;;;;;;;8.76;61.49;101701.07;1733097;81;21141;-67
2021/10/04 04:40:53;;;;;;;22.73;17.20;;;;;;;9.28;59.76;101710.76;1734719;81;21137;-68
2021/10/04 04:43:19;;;;;;;20.60;16.90;;;;;;;9.80;58.44;101704.08;1740925;81;21094;-65
2021/10/04 04:45:45;;;;;;;19.42;15.72;;;;;;;10.31;56.10;101697.28;1748570;79;21240;-79
2021/10/04 04:48:12;;;;;;;19.00;16.00;;;;;;;10.73;54.27;101693.10;1708336;81;21014;-72
2021/10/04 04:50:38;;;;;;;19.42;15.60;;;;;;;11.06;53.64;101697.66;1734341;82;21557;-69
2021/10/04 04:53:04;;;;;;;23.65;16.00;;;;;;;11.40;53.00;101695.48;1732326;82;21042;-72
2021/10/04 04:55:31;;;;;;;19.82;16.52;;;;;;;11.83;52.09;101697.63;1730656;79;21034;-67
2021/10/04 04:57:57;;;;;;;19.25;16.00;;;;;;;12.31;50.45;101699.73;1736465;81;21380;-66
2021/10/04 05:00:24;;;;;;;16.93;14.53;;;;;;;12.76;48.83;101693.85;1728889;82;21242;-79
2021/10/04 05:02:50;;;;;;;20.70;15.78;;;;;;;13.08;47.80;101692.12;1711820;82;21018;-67
2021/10/04 05:05:18;;;;;;;22.90;15.38;;;;;;;13.02;47.19;101697.66;1709223;83;21021;-70
2021/10/04 05:07:45;;;;;;;20.55;16.20;;;;;;;12.80;47.17;101690.34;1703377;82;22148;-70
2021/10/04 05:10:12;;;;;;;21.95;14.78;;;;;;;12.50;47.72;101691.88;1707824;82;21708;-66
2021/10/04 05:12:41;;;;;;;18.35;15.20;;;;;;;12.17;48.17;101694.05;1707721;82;21165;-73
2021/10/04 05:15:09;;;;;;;22.20;16.27;;;;;;;11.73;49.12;101696.92;1715527;82;21087;-68
2021/10/04 05:17:37;;;;;;;26.87;16.35;;;;;;;11.39;49.80;101692.97;1717768;82;21082;-69
2021/10/04 05:20:05;;;;;;;19.42;15.08;;;;;;;11.05;50.67;101706.64;1707762;82;21085;-72
2021/10/04 05:22:35;;;;;;;19.65;15.53;;;;;;;10.75;51.28;101708.45;1713100;82;21038;-69
2021/10/04 05:25:00;;;;;;;20.75;15.38;;;;;;;10.40;52.09;101710.19;1716293;82;21062;-68
2021/10/04 05:27:26;;;;;;;17.05;14.78;;;;;;;10.04;52.97;101711.46;1680218;82;21521;-67
2021/10/04 05:29:52;;;;;;;16.32;14.63;;;;;;;9.75;53.81;101715.16;1703224;82;21568;-70
2021/10/04 05:32:18;;;;;;;19.75;14.63;;;;;;;9.50;54.76;101714.87;1708886;82;21006;-67
2021/10/04 05:34:44;;;;;;;20.35;16.82;;;;;;;9.27;55.33;101719.74;1670651;83;22128;-68
2021/10/04 05:37:11;;;;;;;22.75;16.30;;;;;;;9.04;56.15;101731.23;1676088;84;21119;-68
2021/10/04 05:39:37;;;;;;;;;;;;;;;8.86;57.04;101726.30;1637789;85;21147;-67
2021/10/04 05:42:04;;;;;;;18.03;15.77;;;;;;;8.72;57.41;101731.55;1668895;84;20217;-68
2021/10/04 05:44:30;;;;;;;21.23;16.87;;;;;;;8.61;58.02;101732.56;1670622;83;21038;-66
2021/10/04 05:46:56;;;;;;;20.02;16.25;;;;;;;8.54;58.16;101734.10;1698900;84;21036;-68
2021/10/04 05:49:22;;;;;;;25.92;18.17;;;;;;;8.49;58.62;101734.51;1702094;83;21066;-67
2021/10/04 05:51:48;;;;;;;21.17;16.15;;;;;;;8.49;58.85;101733.67;1687657;82;21131;-69
2021/10/04 05:54:14;;;;;;;22.80;17.50;;;;;;;8.47;59.10;101728.50;1706461;82;21091;-67
2021/10/04 05:56:40;;;;;;;22.62;16.30;;;;;;;8.53;59.58;101729.75;1704893;83;21037;-68
2021/10/04 05:59:06;;;;;;;22.10;18.52;;;;;;;8.61;59.55;101736.55;1705454;84;21647;-70
2021/10/04 06:01:33;;;;;;;;;;;;;;;8.70;59.30;101727.73;1707121;81;21014;-66
2021/10/04 06:03:59;;;;;;;23.47;16.67;;;;;;;8.77;59.19;101727.48;1700928;83;20439;-69
2021/10/04 06:06:25;;;;;;;24.43;16.37;;;;;;;8.84;59.58;101730.92;1696608;83;21145;-67
2021/10/04 06:08:51;;;;;;;18.50;14.93;;;;;;;9.01;59.27;101728.85;1688288;83;21063;-66
2021/10/04 06:11:17;;;;;;;20.70;17.65;;;;;;;9.30;58.84;101737.23;1672024;82;21082;-66
2021/10/04 06:13:43;;;;;;;22.42;18.30;;;;;;;9.55;57.90;101732.58;1676663;84;21032;-68
2021/10/04 06:16:09;;;;;;;21.80;15.45;;;;;;;9.73;57.33;101733.11;1685638;84;21095;-70
2021/10/04 06:18:35;;;;;;;21.30;15.53;;;;;;;9.85;56.78;101734.59;1737322;82;21025;-69
2021/10/04 06:21:02;;;;;;;15.63;14.03;;;;;;;9.93;56.32;101732.02;1733744;82;21072;-73
2021/10/04 06:23:29;;;;;;;;;;;;;;;10.01;55.86;101736.59;1736153;81;21098;-72
2021/10/04 06:25:56;;;;;;;15.23;13.47;;;;;;;10.07;55.63;101731.16;1741870;82;20194;-76
2021/10/04 06:28:22;;;;;;;35.30;18.00;;;;;;;10.08;55.77;101729.67;1743233;82;21041;-72
2021/10/04 06:30:48;;;;;;;52.25;20.48;;;;;;;10.16;55.86;101735.58;1694321;84;21130;-69
2021/10/04 06:33:15;;;;;;;44.67;19.45;;;;;;;10.25;55.47;101728.02;1696524;83;21016;-71
2021/10/04 06:35:40;;;;;;;55.12;23.45;;;;;;;10.31;55.25;101730.09;1678195;84;21034;-72
2021/10/04 06:38:07;;;;;;;38.65;18.57;;;;;;;10.27;55.07;101734.53;1689733;84;21533;-70
2021/10/04 06:40:33;;;;;;;38.98;18.00;;;;;;;10.17;55.88;101734.60;1699760;84;21375;-75
2021/10/04 06:42:59;;;;;;;43.85;20.23;;;;;;;10.17;56.15;101741.27;1740227;82;21046;-71
2021/10/04 06:45:26;;;;;;;39.40;17.80;;;;;;;10.18;56.10;101736.77;1739487;81;21018;-72
2021/10/04 06:47:52;;;;;;;;;;;;;;;10.23;56.30;101730.50;1726890;81;21067;-67
2021/10/04 06:50:19;;;;;;;45.97;19.80;;;;;;;10.30;55.85;101728.87;1730192;81;20191;-69
2021/10/04 06:52:46;;;;;;;38.40;21.67;;;;;;;10.31;56.07;101730.09;1743489;82;21043;-68
2021/10/04 06:55:12;;;;;;;50.52;22.27;;;;;;;10.42;55.97;101730.87;1737198;81;21073;-71
2021/10/04 06:57:39;;;;;;;46.83;20.95;;;;;;;10.55;56.01;101738.45;1730191;81;21065;-70
2021/10/04 07:00:10;;;;;;;31.90;18.93;;;;;;;10.62;55.85;101735.52;1735748;82;21025;-66
2021/10/04 07:02:38;;;;;;;24.90;18.17;;;;;;;10.62;55.60;101733.67;1742107;82;21078;-68
2021/10/04 07:05:07;;;;;;;25.12;19.00;;;;;;;10.55;56.01;101736.64;1730448;81;21809;-69
2021/10/04 07:07:33;;;;;;;31.07;21.43;;;;;;;10.51;56.15;101730.78;1724930;81;21572;-69
2021/10/04 07:09:59;;;;;;;48.75;21.77;;;;;;;10.63;56.33;101734.53;1744213;81;21014;-69
2021/10/04 07:12:25;;;;;;;72.67;28.40;;;;;;;10.73;56.50;101733.11;1707868;82;21568;-69
2021/10/04 07:14:52;;;;;;;91.57;32.35;;;;;;;10.83;56.02;101724.50;1729575;82;21050;-68
2021/10/04 07:17:19;;;;;;;96.40;33.90;;;;;;;10.96;55.87;101735.59;1735739;82;21946;-68
2021/10/04 07:19:46;;;;;;;83.33;29.13;;;;;;;11.13;55.63;101730.37;1736176;81;21038;-68
2021/10/04 07:22:13;;;;;;;110.70;36.67;;;;;;;11.32;55.38;101728.83;1696758;81;21059;-72
2021/10/04 07:24:39;;;;;;;;;;;;;;;11.46;54.59;101733.55;1683892;84;21115;-67
2021/10/04 07:27:06;;;;;;;120.07;36.37;;;;;;;11.53;54.57;101722.22;1685340;84;20145;-69
2021/10/04 07:29:33;;;;;;;88.50;30.57;;;;;;;11.59;54.21;101729.61;1699476;83;22349;-69
2021/10/04 07:32:03;;;;;;;74.07;27.17;;;;;;;11.68;54.19;101733.48;1752798;81;21027;-69
2021/10/04 07:34:31;;;;;;;88.77;28.80;;;;;;;11.83;54.18;101731.02;1741997;81;20995;-69
2021/10/04 07:36:59;;;;;;;106.93;33.60;;;;;;;12.00;53.47;101727.92;1730990;81;21060;-67
2021/10/04 07:39:26;;;;;;;118.60;34.38;;;;;;;12.15;53.16;101733.47;1725806;81;21135;-68
2021/10/04 07:41:52;;;;;;;93.45;30.25;;;;;;;12.23;51.85;101733.98;1743940;81;21070;-69
2021/10/04 07:44:20;;;;;;;105.45;33.30;;;;;;;12.26;51.55;101735.83;1727730;81;21038;-68
2021/10/04 07:46:48;;;;;;;85.00;29.23;;;;;;;12.25;51.46;101730.13;1719738;81;21050;-69
2021/10/04 07:49:15;;;;;;;83.62;28.55;;;;;;;12.28;51.74;101734.30;1722991;81;21094;-69
2021/10/04 07:51:41;;;;;;;90.47;28.27;;;;;;;12.36;51.71;101730.31;1734206;82;21066;-70
2021/10/04 07:54:08;;;;;;;81.08;25.27;;;;;;;12.49;51.28;101731.17;1744614;81;21023;-68
2021/10/04 07:56:38;;;;;;;74.10;24.35;;;;;;;12.66;51.19;101730.16;1738758;80;21007;-72
2021/10/04 07:59:03;;;;;;;63.83;24.82;;;;;;;12.79;50.76;101731.47;1739344;81;21038;-68
2021/10/04 08:01:31;;;;;;;73.33;25.35;;;;;;;12.91;50.19;101731.47;1731758;82;21022;-69
2021/10/04 08:03:57;;;;;;;69.75;26.42;;;;;;;13.04;50.23;101730.44;1729087;81;21046;-67
2021/10/04 08:06:25;;;;;;;73.40;25.48;;;;;;;13.19;49.18;101727.06;1734226;81;21014;-70
2021/10/04 08:08:51;;;;;;;65.12;22.80;;;;;;;13.31;48.65;101725.70;1737706;82;21106;-73
2021/10/04 08:11:17;;;;;;;72.45;24.70;;;;;;;13.41;48.44;101724.16;1730750;82;21046;-70
2021/10/04 08:13:45;;;;;;;118.70;34.85;;;;;;;13.50;48.56;101721.78;1733253;82;21185;-69
2021/10/04 08:16:13;;;;;;;105.58;32.75;;;;;;;13.61;48.22;101717.89;1739880;82;21011;-71
2021/10/04 08:18:39;;;;;;;104.40;32.08;;;;;;;13.75;47.97;101718.98;1744639;82;21010;-69
2021/10/04 08:21:05;;;;;;;95.53;29.25;;;;;;;13.88;47.57;101712.58;1734235;82;21010;-68
2021/10/04 08:23:32;;;;;;;87.10;26.97;;;;;;;14.00;47.29;101716.52;1743819;82;21225;-69
2021/10/04 08:25:59;;;;;;;95.70;28.05;;;;;;;14.14;46.53;101717.58;1739631;81;21069;-73
2021/10/04 08:28:25;;;;;;;67.65;23.30;;;;;;;14.28;45.64;101713.31;1729692;82;21197;-70
2021/10/04 08:30:51;;;;;;;;;;;;;;;14.39;44.58;101718.73;1745033;81;21592;-70
2021/10/04 08:33:17;;;;;;;70.52;22.05;;;;;;;14.38;44.13;101710.38;1732744;80;20111;-68
2021/10/04 08:35:43;;;;;;;56.20;19.65;;;;;;;14.31;44.40;101716.13;1734597;82;20995;-68
2021/10/04 08:38:09;;;;;;;55.78;18.37;;;;;;;14.36;43.82;101711.07;1735685;82;21083;-68
2021/10/04 08:40:37;;;;;;;23.10;12.15;;;;;;;14.41;43.50;101708.17;1735640;82;21493;-71
2021/10/04 08:43:04;;;;;;;32.75;12.40;;;;;;;14.48;43.18;101717.66;1735608;82;21084;-70
2021/10/04 08:45:31;;;;;;;25.10;8.90;;;;;;;14.52;43.44;101718.99;1733095;82;21006;-70
2021/10/04 08:47:59;;;;;;;15.08;6.78;;;;;;;14.61;42.96;101719.77;1738749;81;21114;-67
2021/10/04 08:50:28;;;;;;;12.37;6.60;;;;;;;14.74;42.61;101715.13;1740744;81;21125;-68
2021/10/04 08:52:55;;;;;;;12.58;7.55;;;;;;;14.89;42.34;101721.36;1738736;81;21107;-68
2021/10/04 08:55:21;;;;;;;16.50;5.47;;;;;;;15.05;41.83;101710.12;1737207;81;21007;-68
2021/10/04 08:57:48;;;;;;;;;;;;;;;15.17;40.29;101715.37;1749585;81;21007;-70
2021/10/04 09:00:16;;;;;;;8.07;3.70;;;;;;;15.27;37.75;101707.85;1729489;82;20188;-74
2021/10/04 09:02:42;;;;;;;6.15;3.50;;;;;;;15.21;38.43;101710.46;1733670;82;21529;-70
2021/10/04 09:05:23;;;;;;;5.10;3.77;;;;;;;15.19;38.63;101703.41;1740886;81;21517;-68
2021/10/04 09:07:59;;;;;;;6.22;3.62;;;;;;;15.30;38.83;101719.58;1671718;84;21046;-68
2021/10/04 09:10:28;;;;;;;4.45;4.05;;;;;;;15.42;36.89;101717.25;1734275;81;21094;-72
2021/10/04 09:13:01;;;;;;;3.98;3.58;;;;;;;15.35;36.88;101702.40;1735142;82;21028;-69
2021/10/04 09:15:49;;;;;;;3.80;3.30;;;;;;;15.29;35.52;101697.75;1742499;81;21046;-70
2021/10/04 09:18:22;;;;;;;14.58;5.17;;;;;;;15.30;35.34;101699.43;1721608;82;21052;-68
2021/10/04 09:21:03;;;;;;;4.97;3.60;;;;;;;15.35;36.14;101702.40;1738267;81;21007;-67
2021/10/04 09:23:48;;;;;;;8.78;3.25;;;;;;;15.43;36.32;101692.58;1733683;81;21526;-71
2021/10/04 09:26:32;;;;;;;4.60;2.72;;;;;;;15.45;35.71;101706.14;1735675;81;21046;-72
2021/10/04 09:29:06;;;;;;;11.15;4.25;;;;;;;15.52;35.43;101694.11;1735488;82;21054;-70
2021/10/04 09:31:37;;;;;;;9.98;4.30;;;;;;;15.59;35.44;101685.63;1739835;81;21050;-70
2021/10/04 09:34:16;;;;;;;22.52;7.62;;;;;;;15.63;35.24;101682.88;1725481;81;21007;-67
2021/10/04 09:36:57;;;;;;;11.43;5.08;;;;;;;15.73;35.49;101685.29;1760274;81;21038;-72
2021/10/04 09:39:30;;;;;;;4.03;3.12;;;;;;;15.84;35.77;101679.94;1745252;81;21066;-70
2021/10/04 09:42:12;;;;;;;3.90;2.42;;;;;;;15.93;34.19;101670.20;1742907;82;21039;-69
2021/10/04 09:44:58;;;;;;;5.00;1.90;;;;;;;15.96;33.99;101674.39;1744509;81;21347;-70
2021/10/04 09:47:35;;;;;;;34.50;7.67;;;;;;;15.96;33.37;101688.66;1727544;82;21038;-69
2021/10/04 09:50:08;;;;;;;12.40;4.37;;;;;;;15.90;32.96;101680.54;1740100;81;21094;-70
2021/10/04 09:52:54;;;;;;;12.18;3.47;;;;;;;15.82;33.32;101681.98;1735887;82;22189;-70
2021/10/04 09:55:37;;;;;;;6.03;2.08;;;;;;;15.85;33.48;101685.65;1738100;81;21134;-71
2021/10/04 09:58:28;;;;;;;8.30;2.27;;;;;;;15.82;33.61;101673.92;1733498;82;21018;-69
2021/10/04 10:01:05;;;;;;;14.47;4.62;;;;;;;15.85;33.50;101668.17;1741696;82;21018;-71
2021/10/04 10:03:39;;;;;;;11.12;3.90;;;;;;;15.92;33.78;101670.42;1733143;82;20998;-69
2021/10/04 10:06:07;;;;;;;3.47;2.05;;;;;;;15.93;33.75;101669.38;1724124;81;21059;-74
2021/10/04 10:08:35;;;;;;;11.40;3.95;;;;;;;15.85;33.49;101681.62;1700222;82;21138;-70
2021/10/04 10:11:06;;;;;;;6.20;2.83;;;;;;;15.74;33.85;101666.29;1722892;81;21038;-69
2021/10/04 10:13:35;;;;;;;7.47;2.90;;;;;;;15.76;34.13;101664.76;1732871;81;20992;-69
2021/10/04 10:16:39;;;;;;;5.75;3.22;;;;;;;15.81;34.35;101656.97;1738078;81;21049;-69
2021/10/04 10:19:13;;;;;;;19.02;6.25;;;;;;;15.88;33.84;101650.30;1736847;82;21073;-71
2021/10/04 10:21:40;;;;;;;9.40;3.15;;;;;;;15.85;33.83;101656.08;1738550;81;21314;-71
2021/10/04 10:24:13;;;;;;;10.32;3.08;;;;;;;15.86;33.97;101644.28;1727895;81;21125;-69
2021/10/04 10:26:58;;;;;;;4.87;2.05;;;;;;;15.93;33.95;101656.77;1671674;84;21121;-72
2021/10/04 10:29:28;;;;;;;2.60;2.37;;;;;;;15.96;33.62;101659.60;1732318;81;21035;-68
2021/10/04 10:31:59;;;;;;;7.40;2.90;;;;;;;15.92;33.47;101661.84;1731192;82;21580;-68
2021/10/04 10:34:36;;;;;;;2.35;2.15;;;;;;;15.92;33.69;101659.15;1721157;81;21528;-70
2021/10/04 10:37:22;;;;;;;2.60;2.40;;;;;;;15.89;33.64;101664.07;1729686;81;21047;-71
2021/10/04 10:39:58;;;;;;;23.10;6.17;;;;;;;15.87;33.69;101658.06;1722378;82;21098;-70
2021/10/04 10:42:30;;;;;;;;;;;;;;;15.81;34.02;101650.24;1742649;82;21121;-70
2021/10/04 10:45:05;;;;;;;6.05;3.70;;;;;;;15.79;34.01;101648.27;1710301;81;20152;-71
2021/10/04 10:47:41;;;;;;;5.78;2.90;;;;;;;15.76;34.20;101652.17;1733242;81;21058;-70
2021/10/04 10:50:15;;;;;;;4.08;2.90;;;;;;;15.80;34.07;101640.50;1738990;81;21605;-70
2021/10/04 10:53:02;;;;;;;1.15;1.05;;;;;;;15.82;33.93;101643.83;1738879;81;21051;-71
2021/10/04 10:55:35;;;;;;;8.30;2.40;;;;;;;15.74;33.89;101631.34;1732108;79;21685;-71
2021/10/04 10:58:09;;;;;;;4.30;1.82;;;;;;;15.64;34.02;101642.08;1747206;81;21045;-71
2021/10/04 11:00:53;;;;;;;13.05;4.12;;;;;;;15.55;34.24;101634.63;1737448;81;21589;-75
2021/10/04 11:03:25;;;;;;;4.53;2.17;;;;;;;15.55;34.29;101623.36;1726872;81;21563;-71
2021/10/04 11:06:08;;;;;;;2.70;2.27;;;;;;;15.56;34.71;101629.59;1737766;82;21549;-71
2021/10/04 11:08:50;;;;;;;5.65;2.52;;;;;;;15.64;34.61;101638.04;1726443;81;21525;-69
2021/10/04 11:11:20;;;;;;;3.25;1.70;;;;;;;15.69;34.46;101633.76;1729386;80;21086;-69
2021/10/04 11:14:04;;;;;;;18.98;6.22;;;;;;;15.63;34.30;101648.45;1729950;82;21067;-73
2021/10/04 11:16:35;;;;;;;4.00;2.67;;;;;;;15.62;34.15;101636.88;1724553;81;21026;-71
2021/10/04 11:19:03;;;;;;;13.10;4.03;;;;;;;15.60;34.34;101627.36;1736638;81;21097;-70
2021/10/04 11:21:32;;;;;;;10.13;3.27;;;;;;;15.62;34.44;101631.50;1738840;81;21574;-73
2021/10/04 11:24:06;;;;;;;2.98;2.35;;;;;;;15.63;34.66;101626.95;1650377;83;21081;-70
2021/10/04 11:26:36;;;;;;;3.25;2.25;;;;;;;15.66;34.67;101636.82;1660912;85;21034;-71
2021/10/04 11:29:07;;;;;;;2.50;2.40;;;;;;;15.68;34.67;101618.64;1671950;84;21020;-68